createdAt,value
2022-08-24T00:00:38.088Z,1772.57
2022-08-24T00:03:07.266Z,1356.90
2022-08-24T00:05:36.678Z,1187.03
2022-08-24T00:08:04.776Z,1737.07
2022-08-24T00:10:32.533Z,1491.40
2022-08-24T00:13:00.117Z,1177.83
2022-08-24T00:15:28.099Z,1354.17
2022-08-24T00:17:55.689Z,1614.83
2022-08-24T00:20:23.406Z,1329.50
2022-08-24T00:22:52.358Z,1422.90
2022-08-24T00:25:20.462Z,1009.90
2022-08-24T00:27:48.738Z,1064.67
2022-08-24T00:30:19.067Z,1245.27
2022-08-24T00:32:48.056Z,1698.57
2022-08-24T00:35:18.196Z,1617.83
2022-08-24T00:37:46.484Z,1577.83
2022-08-24T00:40:18.353Z,1425.60
2022-08-24T00:42:46.248Z,1116.67
2022-08-24T00:45:17.194Z,1670.97
2022-08-24T00:47:47.862Z,1118.67
2022-08-24T00:50:20.638Z,1533.43
2022-08-24T00:52:52.651Z,1115.60
2022-08-24T00:55:24.295Z,1501.77
2022-08-24T00:57:54.862Z,1695.93
2022-08-24T01:00:26.457Z,1681.30
2022-08-24T01:02:58.642Z,1453.60
2022-08-24T01:05:26.459Z,1721.07
2022-08-24T01:07:54.038Z,1280.70
2022-08-24T01:10:25.933Z,1593.50
2022-08-24T01:13:00.502Z,1457.53
2022-08-24T01:15:29.638Z,1183.83
2022-08-24T01:18:15.185Z,1548.60
2022-08-24T01:20:44.128Z,1558.77
2022-08-24T01:23:14.940Z,1694.87
2022-08-24T01:25:44.948Z,1387.87
2022-08-24T01:28:14.926Z,1766.73
2022-08-24T01:30:43.846Z,1686.73
2022-08-24T01:33:14.126Z,1597.37
2022-08-24T01:35:41.730Z,1226.73
2022-08-24T01:38:10.604Z,1188.70
2022-08-24T01:40:41.549Z,1232.70
2022-08-24T01:43:12.179Z,1444.73
2022-08-24T01:45:39.917Z,1234.67
2022-08-24T01:48:07.534Z,1378.13
2022-08-24T01:50:35.152Z,1613.27
2022-08-24T01:53:06.013Z,1635.23
2022-08-24T01:55:34.358Z,1123.30
2022-08-24T01:58:02.592Z,1411.77
2022-08-24T02:00:32.147Z,1108.17
2022-08-24T02:02:59.957Z,1125.40
2022-08-24T02:05:27.714Z,1407.73
2022-08-24T02:07:56.015Z,1211.77
2022-08-24T02:10:23.765Z,999.60
2022-08-24T02:12:57.831Z,1313.50
2022-08-24T02:15:28.299Z,1392.67
2022-08-24T02:17:57.954Z,1412.83
2022-08-24T02:20:25.741Z,1378.47
2022-08-24T02:22:54.403Z,1130.43
2022-08-24T02:25:22.449Z,1494.83
2022-08-24T02:27:50.129Z,1748.73
2022-08-24T02:30:18.377Z,1986.27
2022-08-24T02:32:47.090Z,1226.43
2022-08-24T02:35:17.233Z,1214.10
2022-08-24T02:37:44.914Z,1169.07
2022-08-24T02:40:13.491Z,1554.23
2022-08-24T02:42:41.345Z,1349.30
2022-08-24T02:45:10.175Z,1203.90
2022-08-24T02:47:39.229Z,1305.40
2022-08-24T02:50:10.239Z,1322.93
2022-08-24T02:52:39.661Z,1812.40
2022-08-24T02:55:09.202Z,1577.73
2022-08-24T02:57:38.689Z,1863.40
2022-08-24T03:00:10.663Z,1822.80
2022-08-24T03:02:38.816Z,1696.60
2022-08-24T03:05:07.764Z,1412.03
2022-08-24T03:07:36.023Z,1057.43
2022-08-24T03:10:06.327Z,1126.93
2022-08-24T03:12:34.648Z,1116.63
2022-08-24T03:15:03.030Z,1490.67
2022-08-24T03:17:31.337Z,1717.90
2022-08-24T03:19:58.976Z,944.70
2022-08-24T03:22:26.707Z,900.73
2022-08-24T03:24:54.365Z,848.17
2022-08-24T03:27:23.535Z,1065.03
2022-08-24T03:29:51.280Z,2266.67
2022-08-24T03:32:18.894Z,834.60
2022-08-24T03:34:46.785Z,631.77
2022-08-24T03:37:14.662Z,901.73
2022-08-24T03:39:42.223Z,2266.67
2022-08-24T03:42:09.860Z,739.40
2022-08-24T03:44:39.217Z,2266.67
2022-08-24T03:47:08.394Z,834.63
2022-08-24T03:49:36.018Z,859.27
2022-08-24T03:52:04.174Z,2266.67
2022-08-24T03:54:32.243Z,2266.67
2022-08-24T03:56:59.802Z,2266.67
2022-08-24T03:59:27.412Z,1254.67
2022-08-24T04:01:57.427Z,789.90
2022-08-24T04:04:25.091Z,576.57
2022-08-24T04:06:52.878Z,559.80
2022-08-24T04:09:20.691Z,2266.67
2022-08-24T04:11:48.678Z,734.23
2022-08-24T04:14:27.073Z,841.77
2022-08-24T04:16:57.504Z,749.00
2022-08-24T04:19:25.974Z,829.40
2022-08-24T04:21:53.937Z,819.33
2022-08-24T04:24:21.784Z,806.63
2022-08-24T04:26:49.436Z,823.53
2022-08-24T04:29:20.316Z,1230.87
2022-08-24T04:31:48.521Z,692.77
2022-08-24T04:34:18.573Z,788.17
2022-08-24T04:36:47.303Z,858.00
2022-08-24T04:39:15.061Z,725.57
2022-08-24T04:41:42.804Z,610.43
2022-08-24T04:44:10.507Z,825.70
2022-08-24T04:46:38.844Z,1728.30
2022-08-24T04:49:06.457Z,784.37
2022-08-24T04:51:36.482Z,2266.67
2022-08-24T04:54:05.533Z,2266.67
2022-08-24T04:56:33.157Z,2266.67
2022-08-24T04:59:01.254Z,2266.67
2022-08-24T05:01:30.349Z,776.50
2022-08-24T05:03:58.439Z,2266.67
2022-08-24T05:06:27.827Z,776.63
2022-08-24T05:08:56.996Z,604.30
2022-08-24T05:11:25.387Z,589.37
2022-08-24T05:13:53.490Z,940.90
2022-08-24T05:16:21.255Z,599.67
2022-08-24T05:18:49.244Z,618.60
2022-08-24T05:21:18.568Z,577.33
2022-08-24T05:23:46.967Z,2266.67
2022-08-24T05:26:18.417Z,520.23
2022-08-24T05:28:46.989Z,713.23
2022-08-24T05:31:16.769Z,514.20
2022-08-24T05:33:44.682Z,474.77
2022-08-24T05:36:17.998Z,630.53
2022-08-24T05:38:47.768Z,444.10
2022-08-24T05:41:17.121Z,535.37
2022-08-24T05:43:44.888Z,548.17
2022-08-24T05:46:12.849Z,672.10
2022-08-24T05:48:40.544Z,666.60
2022-08-24T05:51:08.815Z,619.83
2022-08-24T05:53:36.714Z,694.70
2022-08-24T05:56:04.922Z,661.27
2022-08-24T05:58:33.947Z,699.97
2022-08-24T06:01:06.812Z,647.37
2022-08-24T06:03:34.823Z,591.53
2022-08-24T06:06:02.999Z,799.07
2022-08-24T06:08:31.055Z,1576.40
2022-08-24T06:11:00.914Z,2266.67
2022-08-24T06:13:28.739Z,462.53
2022-08-24T06:16:20.885Z,2266.67
2022-08-24T06:18:50.737Z,2266.67
2022-08-24T06:21:20.959Z,2266.67
2022-08-24T06:23:48.947Z,2266.67
2022-08-24T06:26:34.419Z,2266.67
2022-08-24T06:29:02.343Z,1241.20
2022-08-24T06:31:39.440Z,2266.67
2022-08-24T06:34:07.783Z,1365.60
2022-08-24T06:36:35.386Z,2066.40
2022-08-24T06:39:03.018Z,2266.67
2022-08-24T06:41:30.757Z,2266.67
2022-08-24T06:43:59.123Z,760.80
2022-08-24T06:46:31.996Z,2266.67
2022-08-24T06:49:01.699Z,2266.67
2022-08-24T06:51:29.321Z,2266.67
2022-08-24T06:53:57.315Z,2266.67
2022-08-24T06:56:24.974Z,2266.67
2022-08-24T06:58:52.703Z,2266.67
2022-08-24T07:01:25.120Z,2183.23
2022-08-24T07:03:53.204Z,2142.47
2022-08-24T07:06:22.222Z,2266.67
2022-08-24T07:08:50.213Z,2266.67
2022-08-24T07:11:19.855Z,2266.67
2022-08-24T07:13:47.962Z,2266.67
2022-08-24T07:16:16.056Z,2266.67
2022-08-24T07:18:49.420Z,2266.67
2022-08-24T07:21:19.308Z,2266.67
2022-08-24T07:23:48.514Z,2266.67
2022-08-24T07:26:21.616Z,342.03
2022-08-24T07:28:49.949Z,2266.67
2022-08-24T07:31:17.684Z,1453.57
2022-08-24T07:33:45.722Z,2266.67
2022-08-24T07:36:22.043Z,2266.67
2022-08-24T07:38:53.160Z,2266.67
2022-08-24T07:41:40.359Z,2266.67
2022-08-24T07:44:09.567Z,2266.67
2022-08-24T07:46:38.935Z,2266.67
2022-08-24T07:49:12.412Z,1655.50
2022-08-24T07:51:48.335Z,2266.67
2022-08-24T07:54:17.288Z,1458.30
2022-08-24T07:56:44.938Z,2266.67
2022-08-24T07:59:13.603Z,2266.67
2022-08-24T08:01:41.626Z,2266.67
2022-08-24T08:04:09.587Z,1444.17
2022-08-24T08:06:38.006Z,2266.67
2022-08-24T08:09:05.865Z,2266.67
2022-08-24T08:11:35.088Z,2266.67
2022-08-24T08:14:02.732Z,2266.67
2022-08-24T08:16:30.449Z,2266.67
2022-08-24T08:19:09.898Z,2266.67
2022-08-24T08:22:00.326Z,2266.67
2022-08-24T08:24:28.027Z,2266.67
2022-08-24T08:26:59.242Z,2266.67
2022-08-24T08:29:27.286Z,2266.67
2022-08-24T08:31:54.991Z,2266.67
2022-08-24T08:34:22.655Z,2266.67
2022-08-24T08:36:50.666Z,2266.67
2022-08-24T08:39:19.922Z,2266.67
2022-08-24T08:42:05.040Z,2266.67
2022-08-24T08:44:53.447Z,2266.67
2022-08-24T08:47:37.492Z,2266.67
2022-08-24T08:50:10.750Z,2266.67
2022-08-24T08:53:16.750Z,2266.67
2022-08-24T08:55:48.800Z,2266.67
2022-08-24T08:58:40.398Z,2266.67
2022-08-24T09:01:20.170Z,2266.67
2022-08-24T09:04:21.146Z,2266.67
2022-08-24T09:07:05.760Z,2266.67
2022-08-24T09:09:48.420Z,2266.67
2022-08-24T09:12:23.199Z,2266.67
2022-08-24T09:15:15.930Z,2266.67
2022-08-24T09:17:56.148Z,2266.67
2022-08-24T09:20:36.571Z,2266.67
2022-08-24T09:23:09.762Z,2266.67
2022-08-24T09:25:44.037Z,2266.67
2022-08-24T09:28:17.871Z,2266.67
2022-08-24T09:31:18.870Z,2266.67
2022-08-24T09:33:52.551Z,2266.67
2022-08-24T09:36:29.909Z,2266.67
2022-08-24T09:39:06.735Z,2266.67
2022-08-24T09:42:22.871Z,2266.67
2022-08-24T09:45:04.689Z,2266.67
2022-08-24T09:48:01.316Z,2266.67
2022-08-24T09:50:51.015Z,2266.67
2022-08-24T09:53:55.657Z,2266.67
2022-08-24T09:56:51.453Z,2266.67
2022-08-24T09:59:33.036Z,2266.67
2022-08-24T10:02:16.298Z,2266.67
2022-08-24T10:04:52.516Z,2266.67
2022-08-24T10:07:27.397Z,2266.67
2022-08-24T10:10:08.959Z,2266.67
2022-08-24T10:12:56.038Z,2266.67
2022-08-24T10:15:29.118Z,2266.67
2022-08-24T10:18:16.908Z,2266.67
2022-08-24T10:20:55.545Z,2266.67
2022-08-24T10:23:38.281Z,2266.67
2022-08-24T10:26:14.755Z,2266.67
2022-08-24T10:28:59.308Z,2266.67
2022-08-24T10:31:32.690Z,2266.67
2022-08-24T10:34:07.919Z,2266.67
2022-08-24T10:36:54.475Z,2266.67
2022-08-24T10:39:50.581Z,2266.67
2022-08-24T10:42:56.819Z,2266.67
2022-08-24T10:46:10.069Z,2266.67
2022-08-24T10:49:29.407Z,2266.67
2022-08-24T10:52:29.135Z,2266.67
2022-08-24T10:54:57.248Z,669.87
2022-08-24T10:57:31.159Z,605.23
2022-08-24T11:00:07.077Z,2266.67
2022-08-24T11:02:36.920Z,2266.67
2022-08-24T11:05:08.010Z,2266.67
2022-08-24T11:07:38.022Z,2266.67
2022-08-24T11:10:09.572Z,553.77
2022-08-24T11:12:39.085Z,2266.67
2022-08-24T11:15:18.984Z,2266.67
2022-08-24T11:17:55.056Z,2266.67
2022-08-24T11:20:27.530Z,2266.67
2022-08-24T11:23:03.235Z,1758.77
2022-08-24T11:25:33.138Z,2266.67
2022-08-24T11:28:05.655Z,2266.67
2022-08-24T11:30:33.648Z,2266.67
2022-08-24T11:33:03.505Z,2266.67
2022-08-24T11:35:37.489Z,2266.67
2022-08-24T11:38:10.036Z,2266.67
2022-08-24T11:40:45.692Z,2266.67
2022-08-24T11:43:23.350Z,2266.67
2022-08-24T11:46:04.166Z,2266.67
2022-08-24T11:48:43.086Z,2266.67
2022-08-24T11:51:14.636Z,2266.67
2022-08-24T11:53:52.559Z,2266.67
2022-08-24T11:56:26.644Z,2266.67
2022-08-24T11:58:59.442Z,2266.67
2022-08-24T12:01:29.056Z,2266.67
2022-08-24T12:04:10.407Z,2266.67
2022-08-24T12:06:46.219Z,2266.67
2022-08-24T12:09:27.294Z,2266.67
2022-08-24T12:12:01.570Z,2266.67
2022-08-24T12:14:34.795Z,2266.67
2022-08-24T12:17:04.534Z,2266.67
2022-08-24T12:19:35.648Z,2266.67
2022-08-24T12:22:05.842Z,2266.67
2022-08-24T12:24:40.451Z,2266.67
2022-08-24T12:27:11.681Z,2266.67
2022-08-24T12:29:42.516Z,2259.57
2022-08-24T12:32:12.341Z,2266.67
2022-08-24T12:34:49.974Z,2266.67
2022-08-24T12:37:22.746Z,2266.67
2022-08-24T12:39:59.869Z,2266.67
2022-08-24T12:42:35.375Z,2266.67
2022-08-24T12:45:06.651Z,2266.67
2022-08-24T12:47:37.699Z,2266.67
2022-08-24T12:50:09.314Z,2266.67
2022-08-24T12:53:04.891Z,2266.67
2022-08-24T12:56:00.995Z,2266.67
2022-08-24T12:58:54.076Z,2266.67
2022-08-24T13:01:27.857Z,2266.67
2022-08-24T13:04:20.471Z,2266.67
2022-08-24T13:06:55.270Z,2266.67
2022-08-24T13:09:31.754Z,1204.57
2022-08-24T13:12:24.283Z,2266.67
2022-08-24T13:15:20.867Z,2266.67
2022-08-24T13:17:49.518Z,2266.67
2022-08-24T13:20:21.204Z,2266.67
2022-08-24T13:23:04.933Z,2266.67
2022-08-24T13:25:47.139Z,2266.67
2022-08-24T13:28:37.331Z,2266.67
2022-08-24T13:31:17.310Z,2266.67
2022-08-24T13:33:48.060Z,2266.67
2022-08-24T13:36:42.961Z,2266.67
2022-08-24T13:39:21.780Z,2266.67
2022-08-24T13:41:55.382Z,2266.67
2022-08-24T13:44:45.417Z,2266.67
2022-08-24T13:47:20.184Z,2266.67
2022-08-24T13:50:01.786Z,2243.93
2022-08-24T13:52:39.479Z,2266.67
2022-08-24T13:55:30.405Z,2266.67
2022-08-24T13:58:17.893Z,2266.67
2022-08-24T14:00:49.971Z,2266.67
2022-08-24T14:03:44.835Z,2266.67
2022-08-24T14:06:22.977Z,2266.67
2022-08-24T14:08:56.961Z,2266.67
2022-08-24T14:11:38.301Z,2266.67
2022-08-24T14:14:09.996Z,2266.67
2022-08-24T14:17:19.872Z,2266.67
2022-08-24T14:19:58.496Z,2266.67
2022-08-24T14:22:33.852Z,2266.67
2022-08-24T14:25:17.048Z,2266.67
2022-08-24T14:27:47.219Z,2266.67
2022-08-24T14:30:46.756Z,2266.67
2022-08-24T14:33:23.235Z,1315.17
2022-08-24T14:36:16.294Z,2266.67
2022-08-24T14:38:57.920Z,2266.67
2022-08-24T14:41:36.114Z,2266.67
2022-08-24T14:44:11.679Z,2266.67
2022-08-24T14:46:46.418Z,2266.67
2022-08-24T14:49:18.129Z,2266.67
2022-08-24T14:51:57.059Z,1241.90
2022-08-24T14:54:33.188Z,2266.67
2022-08-24T14:57:12.345Z,2266.67
2022-08-24T14:59:48.910Z,2266.67
2022-08-24T15:02:45.198Z,2266.67
2022-08-24T15:05:19.939Z,1322.20
2022-08-24T15:07:58.656Z,2266.67
2022-08-24T15:10:29.556Z,2266.67
2022-08-24T15:13:03.963Z,2266.67
2022-08-24T15:15:35.198Z,2266.67
2022-08-24T15:18:09.572Z,2266.67
2022-08-24T15:20:54.912Z,2266.67
2022-08-24T15:23:33.102Z,2266.67
2022-08-24T15:26:04.699Z,2266.67
2022-08-24T15:28:34.903Z,2266.67
2022-08-24T15:31:07.496Z,2266.67
2022-08-24T15:33:36.629Z,2266.67
2022-08-24T15:36:11.425Z,2266.67
2022-08-24T15:38:42.367Z,589.57
2022-08-24T15:41:19.893Z,2266.67
2022-08-24T15:43:50.885Z,1202.23
2022-08-24T15:46:20.832Z,2266.67
2022-08-24T15:48:50.546Z,2266.67
2022-08-24T15:51:32.976Z,2266.67
2022-08-24T15:54:15.760Z,1134.87
2022-08-24T15:56:45.355Z,2231.43
2022-08-24T15:59:28.143Z,2266.67
2022-08-24T16:02:15.752Z,2266.67
2022-08-24T16:04:47.508Z,2266.67
2022-08-24T16:07:17.279Z,2266.67
2022-08-24T16:09:46.338Z,2266.67
2022-08-24T16:12:17.403Z,2266.67
2022-08-24T16:14:47.640Z,2266.67
2022-08-24T16:17:26.350Z,2266.67
2022-08-24T16:19:56.408Z,2264.40
2022-08-24T16:22:29.751Z,1219.53
2022-08-24T16:25:26.693Z,2266.67
2022-08-24T16:28:01.503Z,2266.67
2022-08-24T16:30:38.753Z,2266.67
2022-08-24T16:33:06.574Z,2266.67
2022-08-24T16:35:34.347Z,2266.67
2022-08-24T16:38:03.965Z,2266.67
2022-08-24T16:40:34.897Z,2266.67
2022-08-24T16:43:03.135Z,2266.67
2022-08-24T16:45:35.767Z,2266.67
2022-08-24T16:48:04.600Z,2266.67
2022-08-24T16:50:32.578Z,2266.67
2022-08-24T16:53:00.301Z,2266.67
2022-08-24T16:55:28.574Z,2266.67
2022-08-24T16:57:57.862Z,2266.67
2022-08-24T17:00:25.584Z,2266.67
2022-08-24T17:02:53.223Z,2266.67
2022-08-24T17:05:23.668Z,2266.67
2022-08-24T17:08:10.848Z,2266.67
2022-08-24T17:10:38.555Z,2266.67
2022-08-24T17:13:07.831Z,2266.67
2022-08-24T17:15:36.601Z,2266.67
2022-08-24T17:18:06.916Z,2266.67
2022-08-24T17:20:34.726Z,2266.67
2022-08-24T17:23:02.403Z,2266.67
2022-08-24T17:25:31.054Z,2266.67
2022-08-24T17:28:00.947Z,2266.67
2022-08-24T17:30:32.130Z,2266.67
2022-08-24T17:32:59.910Z,2266.67
2022-08-24T17:35:27.710Z,2266.67
2022-08-24T17:37:56.951Z,2266.67
2022-08-24T17:40:26.385Z,2266.67
2022-08-24T17:42:54.328Z,2256.83
2022-08-24T17:45:23.368Z,2266.67
2022-08-24T17:47:53.412Z,2250.57
2022-08-24T17:50:21.858Z,2266.67
2022-08-24T17:52:49.583Z,2266.67
2022-08-24T17:55:25.147Z,2266.67
2022-08-24T17:57:53.241Z,2266.67
2022-08-24T18:00:20.866Z,2266.67
2022-08-24T18:02:48.624Z,2266.67
2022-08-24T18:05:18.422Z,2266.67
2022-08-24T18:07:53.477Z,2239.57
2022-08-24T18:10:24.529Z,2266.67
2022-08-24T18:12:52.306Z,2266.67
2022-08-24T18:15:20.411Z,2266.67
2022-08-24T18:17:49.501Z,2266.67
2022-08-24T18:20:22.288Z,678.50
2022-08-24T18:22:50.684Z,2266.67
2022-08-24T18:25:22.823Z,2266.67
2022-08-24T18:27:52.570Z,2266.67
2022-08-24T18:30:22.989Z,2266.67
2022-08-24T18:32:53.162Z,2266.67
2022-08-24T18:35:22.911Z,2266.67
2022-08-24T18:37:50.788Z,2266.67
2022-08-24T18:40:21.113Z,2266.67
2022-08-24T18:42:50.760Z,2266.67
2022-08-24T18:45:19.148Z,670.67
2022-08-24T18:47:53.247Z,1927.70
2022-08-24T18:50:22.944Z,2200.00
2022-08-24T18:52:50.806Z,2266.67
2022-08-24T18:55:18.524Z,2266.67
2022-08-24T18:57:46.266Z,2266.67
2022-08-24T19:00:15.183Z,2266.67
2022-08-24T19:02:42.867Z,2266.67
2022-08-24T19:05:12.980Z,2266.67
2022-08-24T19:07:44.472Z,2266.67
2022-08-24T19:10:14.127Z,2266.67
2022-08-24T19:12:46.745Z,2266.67
2022-08-24T19:15:35.758Z,2266.67
2022-08-24T19:18:06.624Z,2266.67
2022-08-24T19:20:34.645Z,2266.67
2022-08-24T19:23:09.614Z,2266.67
2022-08-24T19:25:38.497Z,2266.67
2022-08-24T19:28:06.408Z,2266.67
2022-08-24T19:30:34.282Z,2266.67
2022-08-24T19:33:02.411Z,2266.67
2022-08-24T19:35:31.609Z,2266.67
2022-08-24T19:37:59.336Z,2266.67
2022-08-24T19:40:30.010Z,2266.67
2022-08-24T19:42:58.516Z,2266.67
2022-08-24T19:45:47.723Z,2266.67
2022-08-24T19:48:17.201Z,2266.67
2022-08-24T19:50:45.139Z,2266.67
2022-08-24T19:53:13.503Z,2266.67
2022-08-24T19:55:42.582Z,2266.67
2022-08-24T19:58:19.766Z,2266.67
2022-08-24T20:00:57.749Z,2266.67
2022-08-24T20:03:26.327Z,2266.67
2022-08-24T20:05:54.021Z,2266.67
2022-08-24T20:08:21.902Z,2266.67
2022-08-24T20:10:52.941Z,2266.67
2022-08-24T20:13:20.669Z,2266.67
2022-08-24T20:15:48.663Z,2266.67
2022-08-24T20:18:16.475Z,2266.67
2022-08-24T20:20:44.511Z,2266.67
2022-08-24T20:23:14.018Z,2266.67
2022-08-24T20:25:41.804Z,2266.67
2022-08-24T20:28:28.893Z,2266.67
2022-08-24T20:30:57.050Z,2266.67
2022-08-24T20:33:24.809Z,2266.67
2022-08-24T20:35:52.429Z,2266.67
2022-08-24T20:38:21.437Z,2266.67
2022-08-24T20:40:49.886Z,2266.67
2022-08-24T20:43:19.611Z,2266.67
2022-08-24T20:45:47.661Z,2266.67
2022-08-24T20:48:15.348Z,526.13
2022-08-24T20:50:43.156Z,543.50
2022-08-24T20:53:11.315Z,623.27
2022-08-24T20:55:39.456Z,1186.97
2022-08-24T20:58:07.250Z,2266.67
2022-08-24T21:00:38.264Z,2266.67
2022-08-24T21:03:06.091Z,2266.67
2022-08-24T21:05:33.839Z,2266.67
2022-08-24T21:08:01.516Z,2266.67
2022-08-24T21:10:29.155Z,2266.67
2022-08-24T21:12:56.777Z,2266.67
2022-08-24T21:15:24.344Z,2266.67
2022-08-24T21:17:53.850Z,2266.67
2022-08-24T21:20:21.913Z,2266.67
2022-08-24T21:22:50.071Z,2266.67
2022-08-24T21:25:19.236Z,2266.67
2022-08-24T21:27:48.107Z,2266.67
2022-08-24T21:30:18.851Z,2266.67
2022-08-24T21:33:12.601Z,2266.67
2022-08-24T21:35:42.719Z,2266.67
2022-08-24T21:38:11.500Z,2266.67
2022-08-24T21:40:39.941Z,2266.67
2022-08-24T21:43:14.647Z,2266.67
2022-08-24T21:45:45.327Z,981.40
2022-08-24T21:48:13.538Z,1549.47
2022-08-24T21:50:42.584Z,1027.67
2022-08-24T21:53:10.433Z,1478.27
2022-08-24T21:55:38.543Z,2266.67
2022-08-24T21:58:06.719Z,1556.53
2022-08-24T22:00:35.522Z,2266.67
2022-08-24T22:03:03.760Z,2266.67
2022-08-24T22:05:32.004Z,2266.67
2022-08-24T22:08:01.011Z,1180.80
2022-08-24T22:10:28.648Z,2266.67
2022-08-24T22:12:58.022Z,2266.67
2022-08-24T22:15:27.612Z,2266.67
2022-08-24T22:17:55.256Z,2266.67
2022-08-24T22:20:23.689Z,2266.67
2022-08-24T22:22:52.032Z,2266.67
2022-08-24T22:25:21.057Z,2266.67
2022-08-24T22:27:48.665Z,2266.67
2022-08-24T22:30:18.688Z,2266.67
2022-08-24T22:32:47.208Z,2266.67
2022-08-24T22:35:15.187Z,2266.67
2022-08-24T22:37:43.193Z,2266.67
2022-08-24T22:40:12.662Z,2266.67
2022-08-24T22:42:42.276Z,1426.33
2022-08-24T22:45:11.656Z,2266.67
2022-08-24T22:47:39.295Z,2266.67
2022-08-24T22:50:08.046Z,1478.70
2022-08-24T22:52:35.908Z,2266.67
2022-08-24T22:55:03.940Z,1548.33
2022-08-24T22:57:31.592Z,1475.80
2022-08-24T23:00:02.276Z,2266.67
2022-08-24T23:02:29.908Z,1501.33
2022-08-24T23:04:57.613Z,2266.67
2022-08-24T23:07:25.595Z,2266.67
2022-08-24T23:09:53.233Z,2266.67
2022-08-24T23:12:23.267Z,2266.67
2022-08-24T23:14:51.492Z,2266.67
2022-08-24T23:17:21.875Z,1137.47
2022-08-24T23:20:00.819Z,2266.67
2022-08-24T23:22:31.516Z,2266.67
2022-08-24T23:25:00.300Z,2266.67
2022-08-24T23:27:35.674Z,1443.90
2022-08-24T23:30:07.610Z,1500.30
2022-08-24T23:32:36.606Z,1480.87
2022-08-24T23:35:05.059Z,2266.67
2022-08-24T23:37:32.712Z,993.80
2022-08-24T23:40:00.654Z,538.17
2022-08-24T23:42:28.294Z,503.27
2022-08-24T23:44:55.937Z,628.13
2022-08-24T23:47:24.774Z,2266.67
2022-08-24T23:49:55.405Z,1654.13
2022-08-24T23:52:28.620Z,2266.67
2022-08-24T23:55:09.869Z,1165.03
2022-08-24T23:57:46.584Z,552.67
